Time;durP1;ratioP1;P1;durP2;ratioP2;P2;SDS_P1;SDS_P2;PMS_P1;PMS_P2;Temp;Humidity;BMP_temperature;BMP_pressure;BME280_temperature;BME280_humidity;BME280_pressure;Samples;Min_cycle;Max_cycle;Signal;HPM_P1;HPM_P2
2022/04/19 00:00:09;;;;;;;7.22;1.77;;;;;;;;;;5031036;28;20303;-67
2022/04/19 00:02:35;;;;;;;4.57;1.67;;;;;;;;;;5048554;28;20444;-65
2022/04/19 00:05:00;;;;;;;6.80;1.90;;;;;;;;;;5047288;28;20517;-65
2022/04/19 00:07:25;;;;;;;2.83;1.30;;;;;;;;;;5047805;28;20320;-65
2022/04/19 00:09:50;;;;;;;4.60;2.13;;;;;;;;;;5048803;28;20302;-65
2022/04/19 00:12:15;;;;;;;5.40;1.73;;;;;;;;;;5048383;28;20017;-65
2022/04/19 00:14:41;;;;;;;12.40;2.57;;;;;;;;;;5048605;28;20024;-65
2022/04/19 00:17:07;;;;;;;3.85;1.67;;;;;;;;;;5051075;28;20286;-65
2022/04/19 00:19:32;;;;;;;7.28;2.03;;;;;;;;;;5041893;28;20370;-65
2022/04/19 00:21:57;;;;;;;4.15;1.85;;;;;;;;;;5046779;28;20013;-64
2022/04/19 00:24:22;;;;;;;4.30;2.00;;;;;;;;;;5050357;28;20487;-65
2022/04/19 00:26:47;;;;;;;6.10;1.67;;;;;;;;;;5053277;28;20272;-64
2022/04/19 00:29:12;;;;;;;5.90;2.10;;;;;;;;;;5048749;28;20275;-65
2022/04/19 00:31:38;;;;;;;5.13;1.77;;;;;;;;;;5048880;28;20274;-64
2022/04/19 00:34:03;;;;;;;5.32;1.90;;;;;;;;;;5048452;28;20275;-65
2022/04/19 00:36:28;;;;;;;7.23;2.33;;;;;;;;;;5047131;28;20059;-65
2022/04/19 00:38:53;;;;;;;3.78;1.75;;;;;;;;;;5055129;28;20271;-65
2022/04/19 00:41:19;;;;;;;2.92;1.73;;;;;;;;;;5047870;28;20017;-64
2022/04/19 00:43:44;;;;;;;6.25;2.10;;;;;;;;;;5047311;28;20028;-65
2022/04/19 00:46:09;;;;;;;4.13;2.08;;;;;;;;;;5049026;28;20029;-64
2022/04/19 00:48:34;;;;;;;5.57;1.87;;;;;;;;;;5046264;28;20063;-64
2022/04/19 00:51:00;;;;;;;2.33;1.47;;;;;;;;;;5025921;28;20319;-65
2022/04/19 00:53:26;;;;;;;5.47;2.13;;;;;;;;;;5028640;28;20271;-65
2022/04/19 00:55:52;;;;;;;4.75;2.00;;;;;;;;;;5048723;28;20131;-65
2022/04/19 00:58:17;;;;;;;7.25;1.80;;;;;;;;;;5047132;28;20028;-65
2022/04/19 01:00:43;;;;;;;6.47;2.38;;;;;;;;;;5048941;28;20457;-64
2022/04/19 01:03:08;;;;;;;4.63;1.98;;;;;;;;;;5045856;28;20108;-65
2022/04/19 01:05:34;;;;;;;3.75;2.05;;;;;;;;;;5047494;28;20091;-65
2022/04/19 01:07:59;;;;;;;3.88;1.98;;;;;;;;;;5047685;28;20461;-65
2022/04/19 01:10:25;;;;;;;7.78;1.80;;;;;;;;;;5048398;28;20025;-66
2022/04/19 01:15:34;;;;;;;5.35;1.70;;;;;;;;;;5049890;28;20071;-66
2022/04/19 01:18:01;;;;;;;3.67;1.90;;;;;;;;;;5051015;28;20025;-66
2022/04/19 01:20:28;;;;;;;4.75;2.20;;;;;;;;;;5050796;28;20076;-67
2022/04/19 01:22:53;;;;;;;3.13;1.95;;;;;;;;;;5047933;28;20082;-66
2022/04/19 01:25:20;;;;;;;5.90;2.00;;;;;;;;;;5052714;28;20024;-66
2022/04/19 01:27:46;;;;;;;3.75;2.00;;;;;;;;;;5051011;28;20031;-66
2022/04/19 01:30:11;;;;;;;3.85;1.90;;;;;;;;;;5055634;28;20510;-66
2022/04/19 01:32:36;;;;;;;6.38;2.08;;;;;;;;;;5050842;28;20029;-67
2022/04/19 01:35:05;;;;;;;5.03;2.40;;;;;;;;;;5053113;28;20043;-66
2022/04/19 01:37:32;;;;;;;3.83;1.95;;;;;;;;;;5050701;28;20021;-67
2022/04/19 01:42:52;;;;;;;5.18;1.98;;;;;;;;;;5052124;28;20064;-66
2022/04/19 01:45:18;;;;;;;4.45;1.88;;;;;;;;;;5051714;28;20112;-66
2022/04/19 01:47:44;;;;;;;4.57;1.50;;;;;;;;;;5051420;28;20028;-66
2022/04/19 01:50:10;;;;;;;2.67;1.73;;;;;;;;;;5051729;28;20017;-67
2022/04/19 01:52:36;;;;;;;5.70;2.45;;;;;;;;;;5047180;28;20474;-66
2022/04/19 01:55:02;;;;;;;2.25;1.45;;;;;;;;;;5053971;28;20060;-66
2022/04/19 01:57:27;;;;;;;8.77;1.67;;;;;;;;;;5053249;28;20021;-67
2022/04/19 01:59:53;;;;;;;8.98;1.63;;;;;;;;;;5045112;28;20021;-66
2022/04/19 02:02:18;;;;;;;4.10;2.33;;;;;;;;;;5052684;28;20013;-66
2022/04/19 02:04:43;;;;;;;5.95;1.85;;;;;;;;;;5033255;28;20017;-66
2022/04/19 02:07:08;;;;;;;5.63;2.10;;;;;;;;;;5051258;28;20501;-67
2022/04/19 02:09:34;;;;;;;3.80;1.85;;;;;;;;;;5049600;28;20285;-66
2022/04/19 02:12:00;;;;;;;7.40;2.25;;;;;;;;;;5051947;28;20036;-66
2022/04/19 02:14:25;;;;;;;7.10;2.28;;;;;;;;;;5051049;28;20419;-66
2022/04/19 02:16:53;;;;;;;5.95;2.20;;;;;;;;;;5050971;28;20090;-66
2022/04/19 02:19:18;;;;;;;4.05;2.08;;;;;;;;;;5049774;28;20606;-66
2022/04/19 02:21:43;;;;;;;2.92;1.70;;;;;;;;;;5052055;28;20111;-66
2022/04/19 02:24:08;;;;;;;5.30;2.60;;;;;;;;;;5050807;28;20017;-66
2022/04/19 02:26:33;;;;;;;8.90;2.35;;;;;;;;;;5048722;28;20282;-67
2022/04/19 02:28:58;;;;;;;3.67;1.98;;;;;;;;;;5050345;28;20017;-66
2022/04/19 02:31:26;;;;;;;4.13;2.07;;;;;;;;;;5049289;28;20036;-67
2022/04/19 02:33:51;;;;;;;5.97;2.03;;;;;;;;;;5050749;28;20275;-66
2022/04/19 02:36:17;;;;;;;3.75;2.05;;;;;;;;;;5047385;28;20103;-66
2022/04/19 02:38:43;;;;;;;3.80;1.75;;;;;;;;;;5048159;28;20021;-67
2022/04/19 02:41:08;;;;;;;8.68;1.77;;;;;;;;;;5048468;28;20394;-67
2022/04/19 02:43:33;;;;;;;3.72;2.03;;;;;;;;;;5048025;28;20466;-66
2022/04/19 02:45:58;;;;;;;3.00;1.80;;;;;;;;;;5028877;28;20397;-66
2022/04/19 02:48:24;;;;;;;6.00;1.67;;;;;;;;;;5048679;28;20385;-66
2022/04/19 02:50:49;;;;;;;5.07;1.85;;;;;;;;;;5050704;28;20333;-67
2022/04/19 02:53:15;;;;;;;2.35;1.42;;;;;;;;;;5051010;28;20025;-66
2022/04/19 02:55:40;;;;;;;7.68;2.00;;;;;;;;;;5051060;28;20028;-66
2022/04/19 02:58:08;;;;;;;3.45;2.13;;;;;;;;;;5053203;28;20049;-66
2022/04/19 03:00:34;;;;;;;3.90;1.70;;;;;;;;;;5048678;28;20017;-67
2022/04/19 03:02:59;;;;;;;9.68;2.63;;;;;;;;;;5051602;28;20017;-65
2022/04/19 03:05:24;;;;;;;3.17;1.83;;;;;;;;;;5049664;28;20492;-66
2022/04/19 03:07:49;;;;;;;4.40;1.90;;;;;;;;;;5049544;28;20267;-66
2022/04/19 03:10:18;;;;;;;2.90;1.55;;;;;;;;;;5048871;28;20397;-66
2022/04/19 03:12:44;;;;;;;3.60;1.80;;;;;;;;;;5047933;28;20035;-66
2022/04/19 03:15:11;;;;;;;4.95;2.47;;;;;;;;;;5052083;28;20024;-66
2022/04/19 03:17:37;;;;;;;4.80;2.10;;;;;;;;;;5050525;28;20040;-66
2022/04/19 03:20:02;;;;;;;4.30;1.90;;;;;;;;;;5036253;28;20079;-66
2022/04/19 03:27:41;;;;;;;6.35;1.90;;;;;;;;;;5047625;28;20024;-66
2022/04/19 03:27:59;;;;;;;4.30;2.13;;;;;;;;;;5049841;28;20527;-66
2022/04/19 03:30:25;;;;;;;3.90;1.60;;;;;;;;;;5049520;28;20013;-66
2022/04/19 03:32:52;;;;;;;4.07;2.10;;;;;;;;;;5049639;28;20275;-66
2022/04/19 03:35:18;;;;;;;2.70;1.65;;;;;;;;;;5049839;28;20767;-66
2022/04/19 03:37:43;;;;;;;3.53;2.08;;;;;;;;;;5029830;28;20028;-66
2022/04/19 03:40:09;;;;;;;2.93;1.90;;;;;;;;;;5048382;28;20063;-66
2022/04/19 03:42:34;;;;;;;9.88;2.20;;;;;;;;;;5031279;28;20271;-65
2022/04/19 03:44:59;;;;;;;4.07;2.22;;;;;;;;;;5048355;28;20020;-67
2022/04/19 03:47:24;;;;;;;2.60;1.67;;;;;;;;;;5052143;28;20021;-66
2022/04/19 03:49:49;;;;;;;4.80;2.27;;;;;;;;;;5047991;28;20028;-66
2022/04/19 03:52:15;;;;;;;6.20;2.00;;;;;;;;;;5050727;28;20747;-65
2022/04/19 03:54:40;;;;;;;5.93;1.90;;;;;;;;;;5048470;28;20381;-66
2022/04/19 03:57:07;;;;;;;12.55;2.00;;;;;;;;;;5049423;28;20748;-65
2022/04/19 03:59:32;;;;;;;4.70;1.88;;;;;;;;;;5048884;28;20017;-66
2022/04/19 04:01:58;;;;;;;6.53;2.20;;;;;;;;;;5047521;28;20021;-65
2022/04/19 04:04:23;;;;;;;4.22;1.80;;;;;;;;;;5051707;28;20079;-65
2022/04/19 04:06:49;;;;;;;3.13;1.90;;;;;;;;;;5048254;28;20025;-66
2022/04/19 04:09:14;;;;;;;4.30;1.90;;;;;;;;;;5049052;28;20017;-67
2022/04/19 04:11:39;;;;;;;3.37;2.20;;;;;;;;;;5049471;28;20063;-66
2022/04/19 04:14:04;;;;;;;3.60;2.10;;;;;;;;;;5048858;28;20275;-66
2022/04/19 04:16:29;;;;;;;4.53;2.30;;;;;;;;;;5047978;28;20743;-66
2022/04/19 04:18:55;;;;;;;5.33;2.30;;;;;;;;;;5050581;28;20013;-65
2022/04/19 04:21:20;;;;;;;6.45;1.98;;;;;;;;;;5047665;28;20334;-65
2022/04/19 04:23:45;;;;;;;8.50;2.83;;;;;;;;;;5049420;28;20078;-66
2022/04/19 04:26:10;;;;;;;4.80;2.22;;;;;;;;;;5050478;28;20279;-65
2022/04/19 04:28:35;;;;;;;3.97;2.08;;;;;;;;;;5031179;28;20045;-65
2022/04/19 04:31:00;;;;;;;5.20;2.07;;;;;;;;;;5047797;28;20389;-66
2022/04/19 04:33:26;;;;;;;6.13;2.07;;;;;;;;;;5048421;28;20340;-65
2022/04/19 04:35:51;;;;;;;3.45;1.85;;;;;;;;;;5048792;28;20640;-66
2022/04/19 04:38:16;;;;;;;4.73;2.10;;;;;;;;;;5048714;28;20074;-65
2022/04/19 04:40:41;;;;;;;7.75;2.15;;;;;;;;;;5047696;28;20282;-66
2022/04/19 04:43:07;;;;;;;2.63;2.03;;;;;;;;;;5027947;28;20017;-66
2022/04/19 04:45:32;;;;;;;3.60;1.90;;;;;;;;;;5049115;28;20017;-66
2022/04/19 04:50:41;;;;;;;4.75;2.28;;;;;;;;;;5049607;28;20294;-65
2022/04/19 04:53:06;;;;;;;7.78;2.30;;;;;;;;;;5047054;28;20025;-65
2022/04/19 04:55:32;;;;;;;5.97;2.28;;;;;;;;;;5049935;28;20071;-65
2022/04/19 04:57:59;;;;;;;4.07;1.98;;;;;;;;;;5047476;28;20021;-65
2022/04/19 05:00:27;;;;;;;10.65;2.55;;;;;;;;;;5049588;28;20013;-66
2022/04/19 05:02:52;;;;;;;4.78;1.95;;;;;;;;;;5046965;28;20167;-66
2022/04/19 05:05:18;;;;;;;7.40;2.20;;;;;;;;;;5048961;28;20103;-66
2022/04/19 05:07:43;;;;;;;4.88;2.63;;;;;;;;;;5044978;28;20025;-66
2022/04/19 05:10:08;;;;;;;12.73;3.00;;;;;;;;;;5047123;28;20129;-66
2022/04/19 05:12:33;;;;;;;5.28;2.20;;;;;;;;;;5047355;28;20286;-65
2022/04/19 05:14:59;;;;;;;7.10;2.40;;;;;;;;;;5048095;28;20421;-66
2022/04/19 05:17:24;;;;;;;8.55;2.35;;;;;;;;;;5050528;28;20028;-66
2022/04/19 05:19:49;;;;;;;7.43;2.38;;;;;;;;;;5047397;28;20025;-66
2022/04/19 05:22:14;;;;;;;6.07;2.70;;;;;;;;;;5029857;28;20083;-66
2022/04/19 05:24:39;;;;;;;8.00;2.20;;;;;;;;;;5049852;28;20303;-66
2022/04/19 05:27:05;;;;;;;8.02;2.15;;;;;;;;;;5048421;28;20027;-66
2022/04/19 05:29:30;;;;;;;8.82;2.47;;;;;;;;;;5049042;28;20025;-65
2022/04/19 05:31:55;;;;;;;15.37;3.10;;;;;;;;;;5050179;28;20444;-67
2022/04/19 05:34:20;;;;;;;8.15;2.63;;;;;;;;;;5049300;28;20350;-66
2022/04/19 05:36:45;;;;;;;7.57;3.33;;;;;;;;;;5047271;28;20048;-66
2022/04/19 05:39:10;;;;;;;4.50;2.50;;;;;;;;;;5045669;28;20767;-65
2022/04/19 05:41:39;;;;;;;6.78;2.80;;;;;;;;;;5049330;28;20267;-66
2022/04/19 05:44:04;;;;;;;7.82;2.90;;;;;;;;;;5047373;28;20040;-66
2022/04/19 05:46:30;;;;;;;6.93;2.97;;;;;;;;;;5045622;28;20043;-66
2022/04/19 05:48:56;;;;;;;9.43;2.63;;;;;;;;;;5046372;28;20048;-67
2022/04/19 05:51:21;;;;;;;3.97;2.40;;;;;;;;;;5047622;28;20077;-66
2022/04/19 05:53:46;;;;;;;5.80;2.83;;;;;;;;;;5046236;28;20025;-66
2022/04/19 05:56:11;;;;;;;4.88;2.35;;;;;;;;;;5042147;28;20286;-66
2022/04/19 05:58:37;;;;;;;5.90;2.93;;;;;;;;;;5044374;28;20115;-66
2022/04/19 06:01:02;;;;;;;7.10;2.88;;;;;;;;;;5045787;28;20272;-66
2022/04/19 06:06:11;;;;;;;7.88;2.75;;;;;;;;;;5055723;28;20080;-68
2022/04/19 06:08:37;;;;;;;6.22;3.15;;;;;;;;;;5054944;28;20052;-66
2022/04/19 06:11:02;;;;;;;7.13;2.43;;;;;;;;;;5060090;28;20465;-66
2022/04/19 06:13:28;;;;;;;4.00;2.33;;;;;;;;;;5050074;28;20268;-66
2022/04/19 06:15:53;;;;;;;5.55;2.75;;;;;;;;;;5048586;28;20112;-66
2022/04/19 06:18:18;;;;;;;6.90;2.63;;;;;;;;;;5052015;28;20369;-66
2022/04/19 06:20:43;;;;;;;3.72;2.45;;;;;;;;;;5048958;28;20297;-65
2022/04/19 06:23:10;;;;;;;6.75;3.35;;;;;;;;;;5058362;28;20350;-65
2022/04/19 06:25:35;;;;;;;9.07;3.35;;;;;;;;;;5041518;28;20017;-66
2022/04/19 06:28:01;;;;;;;6.43;3.20;;;;;;;;;;5053006;28;20017;-66
2022/04/19 06:30:26;;;;;;;5.77;2.73;;;;;;;;;;5049370;28;20020;-65
2022/04/19 06:32:52;;;;;;;7.07;3.10;;;;;;;;;;5052225;28;20944;-67
2022/04/19 06:35:17;;;;;;;6.45;3.22;;;;;;;;;;5051840;28;20028;-66
2022/04/19 06:37:42;;;;;;;4.88;2.97;;;;;;;;;;5049424;28;20104;-65
2022/04/19 06:40:07;;;;;;;5.13;2.70;;;;;;;;;;5058068;28;20110;-66
2022/04/19 06:42:33;;;;;;;5.88;3.20;;;;;;;;;;5067211;28;20427;-65
2022/04/19 06:44:59;;;;;;;8.95;3.05;;;;;;;;;;5055958;28;20187;-66
2022/04/19 06:47:25;;;;;;;6.83;3.10;;;;;;;;;;5052113;28;20067;-66
2022/04/19 06:49:51;;;;;;;8.25;3.13;;;;;;;;;;5050446;28;20271;-65
2022/04/19 06:52:16;;;;;;;5.80;3.00;;;;;;;;;;5050537;28;20023;-67
2022/04/19 06:54:42;;;;;;;3.40;2.47;;;;;;;;;;5049795;28;20117;-66
2022/04/19 06:57:07;;;;;;;11.27;3.55;;;;;;;;;;5046322;28;20021;-67
2022/04/19 06:59:32;;;;;;;7.20;3.25;;;;;;;;;;5035034;28;20056;-67
2022/04/19 07:01:57;;;;;;;10.70;3.03;;;;;;;;;;5040046;28;20024;-67
2022/04/19 07:04:22;;;;;;;6.20;2.80;;;;;;;;;;5047269;28;20078;-67
2022/04/19 07:06:48;;;;;;;4.97;3.10;;;;;;;;;;5045574;28;20318;-67
2022/04/19 07:09:13;;;;;;;7.28;3.60;;;;;;;;;;5051268;28;20809;-66
2022/04/19 07:11:38;;;;;;;6.53;3.73;;;;;;;;;;5054457;28;20044;-66
2022/04/19 07:14:04;;;;;;;5.50;3.60;;;;;;;;;;5048260;28;20279;-67
2022/04/19 07:16:29;;;;;;;5.75;3.70;;;;;;;;;;5048383;28;20021;-68
2022/04/19 07:18:54;;;;;;;8.00;3.38;;;;;;;;;;5045055;28;20059;-66
2022/04/19 07:26:48;;;;;;;8.85;4.15;;;;;;;;;;5030820;28;20031;-68
2022/04/19 07:29:15;;;;;;;5.90;3.58;;;;;;;;;;5055877;28;20474;-67
2022/04/19 07:31:41;;;;;;;6.47;4.22;;;;;;;;;;5057849;28;20112;-67
2022/04/19 07:34:06;;;;;;;7.05;3.90;;;;;;;;;;5062775;28;20021;-67
2022/04/19 07:36:33;;;;;;;6.22;4.00;;;;;;;;;;5056898;28;20457;-67
2022/04/19 07:38:59;;;;;;;7.32;4.10;;;;;;;;;;5059738;28;20017;-67
2022/04/19 07:41:25;;;;;;;6.57;4.38;;;;;;;;;;5057960;28;20481;-66
2022/04/19 07:43:51;;;;;;;8.27;4.30;;;;;;;;;;5047584;28;20524;-67
2022/04/19 07:46:16;;;;;;;9.70;4.90;;;;;;;;;;5049008;28;20032;-67
2022/04/19 07:48:45;;;;;;;9.35;4.22;;;;;;;;;;5046309;28;20029;-66
2022/04/19 07:51:11;;;;;;;7.53;4.63;;;;;;;;;;5049911;28;20539;-66
2022/04/19 07:53:36;;;;;;;8.68;5.00;;;;;;;;;;5049779;28;20021;-67
2022/04/19 07:56:02;;;;;;;9.97;5.43;;;;;;;;;;5048007;28;20087;-66
2022/04/19 07:58:27;;;;;;;16.08;4.32;;;;;;;;;;5048349;28;20020;-66
2022/04/19 08:00:52;;;;;;;7.40;4.38;;;;;;;;;;5048589;28;20024;-68
2022/04/19 08:03:17;;;;;;;10.27;4.97;;;;;;;;;;5048077;28;20078;-66
2022/04/19 08:05:43;;;;;;;8.33;4.73;;;;;;;;;;5047995;28;20025;-67
2022/04/19 08:08:08;;;;;;;8.53;5.13;;;;;;;;;;5031475;28;20272;-67
2022/04/19 08:10:33;;;;;;;8.50;5.43;;;;;;;;;;5042148;28;20029;-67
2022/04/19 08:12:58;;;;;;;8.00;4.70;;;;;;;;;;5049393;28;20096;-67
2022/04/19 08:15:24;;;;;;;6.80;4.50;;;;;;;;;;5048068;28;20021;-67
2022/04/19 08:17:49;;;;;;;7.38;4.50;;;;;;;;;;5049403;28;20126;-67
2022/04/19 08:20:15;;;;;;;6.40;4.63;;;;;;;;;;5048000;28;20554;-66
2022/04/19 08:22:40;;;;;;;7.93;5.13;;;;;;;;;;5047434;28;20021;-67
2022/04/19 08:25:06;;;;;;;11.77;5.90;;;;;;;;;;5049409;28;20024;-68
2022/04/19 08:27:31;;;;;;;11.75;5.00;;;;;;;;;;5046518;28;20102;-66
2022/04/19 08:29:56;;;;;;;7.20;5.63;;;;;;;;;;5049319;28;20023;-67
2022/04/19 08:32:21;;;;;;;6.57;5.03;;;;;;;;;;5050401;28;20104;-67
2022/04/19 08:34:47;;;;;;;10.83;5.30;;;;;;;;;;5050097;28;20028;-67
2022/04/19 08:37:12;;;;;;;10.27;5.40;;;;;;;;;;5047379;28;20067;-66
2022/04/19 08:39:37;;;;;;;8.57;5.43;;;;;;;;;;5046075;28;20283;-66
2022/04/19 08:42:04;;;;;;;7.32;4.72;;;;;;;;;;5047417;28;20111;-66
2022/04/19 08:44:29;;;;;;;8.40;5.38;;;;;;;;;;5047839;28;20100;-67
2022/04/19 08:46:57;;;;;;;11.07;5.50;;;;;;;;;;5048123;28;20048;-67
2022/04/19 08:49:24;;;;;;;11.27;5.68;;;;;;;;;;5049738;28;20251;-67
2022/04/19 08:51:49;;;;;;;13.02;5.70;;;;;;;;;;5048165;28;20017;-66
2022/04/19 09:00:04;;;;;;;7.07;4.90;;;;;;;;;;4966375;28;20041;-66
2022/04/19 09:02:31;;;;;;;7.85;4.57;;;;;;;;;;4965379;28;20026;-65
2022/04/19 09:05:10;;;;;;;9.65;4.75;;;;;;;;;;5003782;28;20032;-66
2022/04/19 09:07:36;;;;;;;9.27;5.43;;;;;;;;;;5048560;28;20009;-66
2022/04/19 09:10:02;;;;;;;8.40;4.57;;;;;;;;;;5047115;28;20029;-66
2022/04/19 09:12:27;;;;;;;8.40;5.30;;;;;;;;;;5046402;28;20025;-66
2022/04/19 09:14:56;;;;;;;8.77;5.53;;;;;;;;;;5046921;28;20064;-66
2022/04/19 09:17:32;;;;;;;6.68;3.25;;;;;;;;;;5043752;28;20021;-66
2022/04/19 09:20:10;;;;;;;7.55;4.55;;;;;;;;;;5045815;28;20100;-66
2022/04/19 09:22:37;;;;;;;10.45;4.75;;;;;;;;;;5044783;28;20060;-66
2022/04/19 09:25:21;;;;;;;8.13;4.53;;;;;;;;;;5042062;28;20023;-66
2022/04/19 09:27:47;;;;;;;9.00;4.45;;;;;;;;;;5024841;28;20155;-67
2022/04/19 09:30:18;;;;;;;7.72;4.72;;;;;;;;;;5044740;28;20048;-66
2022/04/19 09:33:03;;;;;;;6.45;4.05;;;;;;;;;;5044233;28;20044;-67
2022/04/19 09:35:29;;;;;;;8.85;3.75;;;;;;;;;;5047831;28;20021;-66
2022/04/19 09:37:55;;;;;;;6.80;2.92;;;;;;;;;;5048319;28;20025;-66
2022/04/19 09:40:26;;;;;;;7.97;3.65;;;;;;;;;;5046614;28;20033;-67
2022/04/19 09:42:54;;;;;;;7.47;3.92;;;;;;;;;;5047943;28;20055;-66
2022/04/19 09:45:19;;;;;;;5.90;3.30;;;;;;;;;;5055700;28;20016;-66
2022/04/19 09:47:51;;;;;;;7.53;4.37;;;;;;;;;;5049165;28;20028;-66
2022/04/19 09:50:16;;;;;;;6.63;3.88;;;;;;;;;;5046952;28;20485;-66
2022/04/19 09:52:48;;;;;;;7.47;4.10;;;;;;;;;;5049387;28;20020;-66
2022/04/19 09:55:13;;;;;;;6.30;4.10;;;;;;;;;;5061263;28;20029;-66
2022/04/19 09:57:40;;;;;;;8.13;3.95;;;;;;;;;;5052014;28;20490;-67
2022/04/19 10:00:09;;;;;;;7.20;4.25;;;;;;;;;;5057420;28;20024;-66
2022/04/19 10:08:22;;;;;;;7.35;4.05;;;;;;;;;;5051655;28;20020;-66
2022/04/19 10:10:50;;;;;;;6.75;3.80;;;;;;;;;;5048180;28;20082;-66
2022/04/19 10:13:17;;;;;;;6.03;3.70;;;;;;;;;;5048497;28;20120;-66
2022/04/19 10:15:42;;;;;;;8.38;3.83;;;;;;;;;;5053072;28;20470;-66
2022/04/19 10:18:07;;;;;;;7.20;4.10;;;;;;;;;;5054437;28;20099;-66
2022/04/19 10:20:39;;;;;;;6.17;3.97;;;;;;;;;;5049651;28;20025;-66
2022/04/19 10:23:09;;;;;;;6.63;4.10;;;;;;;;;;5050399;28;20263;-66
2022/04/19 10:25:45;;;;;;;8.40;5.18;;;;;;;;;;5053764;28;20013;-66
2022/04/19 10:28:11;;;;;;;11.75;4.57;;;;;;;;;;5049819;28;20131;-66
2022/04/19 10:30:37;;;;;;;9.45;4.70;;;;;;;;;;5055283;28;20025;-66
2022/04/19 10:33:23;;;;;;;9.48;4.72;;;;;;;;;;5049905;28;20432;-66
2022/04/19 10:36:08;;;;;;;7.43;3.42;;;;;;;;;;5047693;22;20054;-69
2022/04/19 10:38:33;;;;;;;10.55;3.70;;;;;;;;;;5033232;28;20025;-68
2022/04/19 10:40:58;;;;;;;8.07;4.07;;;;;;;;;;5033110;28;20523;-69
2022/04/19 10:43:24;;;;;;;6.90;3.97;;;;;;;;;;5032357;28;20472;-70
2022/04/19 10:45:49;;;;;;;13.03;4.37;;;;;;;;;;5030855;28;20022;-70
2022/04/19 10:48:16;;;;;;;7.28;4.60;;;;;;;;;;5031244;28;21509;-70
2022/04/19 10:50:44;;;;;;;7.68;4.15;;;;;;;;;;5025563;28;20021;-69
2022/04/19 10:53:12;;;;;;;8.32;4.20;;;;;;;;;;5031822;28;20038;-69
2022/04/19 10:55:53;;;;;;;7.88;4.03;;;;;;;;;;5026325;28;20489;-70
2022/04/19 10:58:20;;;;;;;8.23;5.20;;;;;;;;;;5034183;28;20103;-70
2022/04/19 11:01:02;;;;;;;7.20;4.32;;;;;;;;;;5027686;28;20300;-69
2022/04/19 11:03:33;;;;;;;6.80;3.42;;;;;;;;;;5031040;28;20018;-69
2022/04/19 11:05:58;;;;;;;4.32;2.70;;;;;;;;;;5030564;28;20021;-68
2022/04/19 11:08:29;;;;;;;10.10;3.33;;;;;;;;;;5011104;28;20018;-68
2022/04/19 11:10:58;;;;;;;5.13;3.13;;;;;;;;;;5024014;28;20025;-69
2022/04/19 11:13:23;;;;;;;5.55;2.75;;;;;;;;;;5033461;28;20044;-69
2022/04/19 11:16:06;;;;;;;4.95;3.03;;;;;;;;;;5011094;28;20474;-69
2022/04/19 11:18:32;;;;;;;4.53;3.20;;;;;;;;;;5028977;28;20375;-69
2022/04/19 11:20:58;;;;;;;5.00;3.50;;;;;;;;;;5034378;28;20487;-69
2022/04/19 11:23:27;;;;;;;5.50;3.30;;;;;;;;;;5027398;28;20029;-69
2022/04/19 11:25:53;;;;;;;4.18;2.28;;;;;;;;;;5028619;28;20441;-69
2022/04/19 11:28:20;;;;;;;4.05;2.28;;;;;;;;;;5031130;28;20083;-70
2022/04/19 11:30:55;;;;;;;5.43;2.83;;;;;;;;;;5029789;28;20021;-69
2022/04/19 11:33:24;;;;;;;8.20;2.88;;;;;;;;;;5029886;28;20025;-69
2022/04/19 11:36:00;;;;;;;3.85;1.75;;;;;;;;;;5029176;28;20151;-69
2022/04/19 11:38:25;;;;;;;16.10;3.03;;;;;;;;;;5032084;28;20087;-69
2022/04/19 11:49:07;;;;;;;9.77;3.33;;;;;;;;;;5027558;28;20630;-69
2022/04/19 11:51:35;;;;;;;6.82;3.15;;;;;;;;;;5023265;28;20112;-69
2022/04/19 11:54:00;;;;;;;6.60;3.10;;;;;;;;;;5031800;28;20079;-69
2022/04/19 11:56:25;;;;;;;7.33;3.20;;;;;;;;;;5031641;28;20496;-69
2022/04/19 11:58:52;;;;;;;4.13;3.03;;;;;;;;;;5033783;28;20743;-69
2022/04/19 12:01:17;;;;;;;4.32;2.92;;;;;;;;;;5029489;28;20025;-70
2022/04/19 12:03:42;;;;;;;3.45;2.20;;;;;;;;;;5026289;28;20386;-70
2022/04/19 12:06:12;;;;;;;4.97;2.28;;;;;;;;;;5037393;28;20013;-69
2022/04/19 12:08:41;;;;;;;8.68;2.33;;;;;;;;;;5023155;28;20025;-69
2022/04/19 12:11:11;;;;;;;5.67;2.60;;;;;;;;;;5031225;28;20029;-69
2022/04/19 12:13:36;;;;;;;5.38;2.83;;;;;;;;;;5024378;28;20025;-69
2022/04/19 12:16:03;;;;;;;4.00;2.40;;;;;;;;;;5028236;28;20107;-69
2022/04/19 12:18:36;;;;;;;3.58;2.10;;;;;;;;;;5026009;28;20021;-69
2022/04/19 12:21:02;;;;;;;5.60;2.33;;;;;;;;;;5032702;28;20434;-69
2022/04/19 12:23:27;;;;;;;5.18;2.28;;;;;;;;;;5028538;28;20017;-69
2022/04/19 12:25:59;;;;;;;3.63;2.22;;;;;;;;;;5032668;28;20032;-69
2022/04/19 12:28:41;;;;;;;3.53;1.80;;;;;;;;;;5026161;28;20049;-69
2022/04/19 12:31:07;;;;;;;3.05;1.90;;;;;;;;;;5026640;28;20021;-69
2022/04/19 12:33:34;;;;;;;3.70;2.00;;;;;;;;;;5030882;28;20036;-69
2022/04/19 12:36:00;;;;;;;5.50;2.20;;;;;;;;;;5032827;28;20029;-68
2022/04/19 12:38:30;;;;;;;6.50;2.63;;;;;;;;;;5029621;28;20024;-69
2022/04/19 12:40:55;;;;;;;5.95;2.60;;;;;;;;;;5029183;28;20124;-69
2022/04/19 12:43:20;;;;;;;8.37;2.57;;;;;;;;;;5027844;28;20132;-69
2022/04/19 12:45:46;;;;;;;3.60;2.57;;;;;;;;;;5032120;28;20378;-69
2022/04/19 12:48:21;;;;;;;4.68;2.80;;;;;;;;;;5031375;28;20037;-69
2022/04/19 12:50:47;;;;;;;5.90;3.42;;;;;;;;;;5027696;28;20026;-69
2022/04/19 12:53:24;;;;;;;5.88;3.60;;;;;;;;;;5029639;28;20032;-69
2022/04/19 12:55:49;;;;;;;9.52;5.10;;;;;;;;;;5010753;28;20370;-69
2022/04/19 12:58:14;;;;;;;16.52;3.30;;;;;;;;;;5029042;28;20085;-69
2022/04/19 13:00:39;;;;;;;7.38;3.40;;;;;;;;;;5030471;28;20437;-69
2022/04/19 13:03:05;;;;;;;8.13;3.43;;;;;;;;;;5029490;28;20377;-69
2022/04/19 13:13:42;;;;;;;5.00;3.05;;;;;;;;;;5032291;28;20449;-69
2022/04/19 13:16:07;;;;;;;7.63;3.00;;;;;;;;;;5030887;28;20052;-70
2022/04/19 13:18:32;;;;;;;4.30;2.80;;;;;;;;;;5024097;28;20613;-69
2022/04/19 13:20:58;;;;;;;6.82;3.13;;;;;;;;;;5027159;28;20026;-70
2022/04/19 13:23:23;;;;;;;7.43;3.70;;;;;;;;;;5023604;28;20032;-69
2022/04/19 13:25:48;;;;;;;6.88;4.00;;;;;;;;;;5032770;28;20367;-69
2022/04/19 13:28:13;;;;;;;5.67;3.03;;;;;;;;;;5033549;28;20113;-69
2022/04/19 13:30:40;;;;;;;6.87;3.83;;;;;;;;;;5034641;28;20377;-69
2022/04/19 13:33:05;;;;;;;6.72;3.55;;;;;;;;;;5035358;28;20268;-70
2022/04/19 13:35:30;;;;;;;6.00;3.23;;;;;;;;;;5041543;28;20029;-69
2022/04/19 13:38:41;;;;;;;10.50;3.27;;;;;;;;;;5036898;28;20268;-69
2022/04/19 13:40:41;;;;;;;6.50;3.53;;;;;;;;;;5017600;28;20083;-70
2022/04/19 13:43:06;;;;;;;10.68;4.05;;;;;;;;;;5032454;28;20052;-69
2022/04/19 13:45:33;;;;;;;9.10;4.22;;;;;;;;;;5038681;28;20021;-69
2022/04/19 13:47:59;;;;;;;8.57;3.75;;;;;;;;;;5035238;28;20538;-69
2022/04/19 13:50:24;;;;;;;6.78;3.97;;;;;;;;;;5039095;28;20016;-68
2022/04/19 13:52:49;;;;;;;8.43;3.72;;;;;;;;;;5033503;28;20030;-68
2022/04/19 13:55:18;;;;;;;13.87;6.83;;;;;;;;;;5033313;28;20025;-68
2022/04/19 13:57:43;;;;;;;7.50;3.80;;;;;;;;;;5033062;28;20252;-69
2022/04/19 14:00:09;;;;;;;6.63;3.60;;;;;;;;;;5032624;28;20389;-69
2022/04/19 14:02:34;;;;;;;10.07;4.50;;;;;;;;;;5036910;28;20025;-70
2022/04/19 14:05:00;;;;;;;6.47;3.63;;;;;;;;;;5041410;28;20067;-69
2022/04/19 14:07:25;;;;;;;9.35;3.70;;;;;;;;;;5032814;28;20014;-69
2022/04/19 14:09:50;;;;;;;9.57;4.20;;;;;;;;;;5032863;28;20026;-69
2022/04/19 14:12:15;;;;;;;15.23;4.10;;;;;;;;;;5042889;28;20299;-68
2022/04/19 14:14:42;;;;;;;12.43;7.22;;;;;;;;;;5047559;28;20246;-68
2022/04/19 14:17:08;;;;;;;10.52;7.15;;;;;;;;;;5032623;28;20028;-68
2022/04/19 14:19:33;;;;;;;8.65;4.30;;;;;;;;;;5032672;28;20100;-70
2022/04/19 14:21:58;;;;;;;12.20;3.87;;;;;;;;;;5032950;28;20013;-68
2022/04/19 14:24:24;;;;;;;7.55;4.40;;;;;;;;;;5032626;28;20311;-68
2022/04/19 14:26:49;;;;;;;8.77;3.78;;;;;;;;;;5048048;28;20491;-68
2022/04/19 14:34:43;;;;;;;7.72;3.50;;;;;;;;;;5032737;28;20087;-69
2022/04/19 14:37:08;;;;;;;10.10;3.90;;;;;;;;;;5032623;28;20018;-68
2022/04/19 14:39:33;;;;;;;7.47;4.60;;;;;;;;;;5031918;28;20295;-68
2022/04/19 14:41:59;;;;;;;6.23;3.27;;;;;;;;;;5031337;28;20030;-68
2022/04/19 14:44:24;;;;;;;12.82;6.25;;;;;;;;;;5029317;28;20278;-68
2022/04/19 14:46:49;;;;;;;5.80;3.33;;;;;;;;;;5035547;28;20472;-69
2022/04/19 14:49:14;;;;;;;10.37;3.80;;;;;;;;;;5037047;28;20063;-68
2022/04/19 14:54:23;;;;;;;7.28;3.83;;;;;;;;;;5031011;28;20051;-71
2022/04/19 14:56:48;;;;;;;8.02;3.72;;;;;;;;;;5032790;28;20913;-68
2022/04/19 14:59:13;;;;;;;13.00;3.65;;;;;;;;;;5036015;28;20064;-70
2022/04/19 15:01:39;;;;;;;10.40;3.53;;;;;;;;;;5038336;28;20033;-68
2022/04/19 15:04:04;;;;;;;7.70;3.75;;;;;;;;;;5035755;28;20435;-71
2022/04/19 15:06:29;;;;;;;7.43;3.30;;;;;;;;;;5024350;28;20553;-68
2022/04/19 15:08:54;;;;;;;6.97;3.40;;;;;;;;;;5031885;28;20013;-70
2022/04/19 15:11:20;;;;;;;6.70;3.60;;;;;;;;;;5027902;28;20017;-69
2022/04/19 15:13:45;;;;;;;12.73;2.97;;;;;;;;;;5034271;28;20075;-68
2022/04/19 15:16:11;;;;;;;5.90;3.33;;;;;;;;;;5029942;28;20066;-70
2022/04/19 15:18:36;;;;;;;8.17;2.97;;;;;;;;;;5031027;28;20025;-69
2022/04/19 15:21:01;;;;;;;5.75;3.22;;;;;;;;;;5035924;28;20611;-69
2022/04/19 15:23:26;;;;;;;6.50;3.13;;;;;;;;;;5028922;28;20104;-68
2022/04/19 15:25:51;;;;;;;8.30;2.67;;;;;;;;;;5026720;28;20068;-68
2022/04/19 15:28:17;;;;;;;5.13;3.20;;;;;;;;;;5028076;28;20319;-68
2022/04/19 15:30:42;;;;;;;6.97;3.20;;;;;;;;;;5027850;28;20276;-69